Terminal Aerodrome Forecast
Issued by NWS Cleveland, OH

Home | Current Version | Previous Version | Graphics & Text | Print | Product List | Glossary On
Versions: 1 2 3 4 5 6 7 8 9 10 11 12 13 14 15 16 17 18
764
FTUS41 KCLE 111120
TAFMFD
TAF
KMFD 111120Z 1112/1212 27007KT P6SM OVC025
      TEMPO 1112/1116 SCT025 OVC035
     FM111600 18008KT P6SM SCT025 OVC035
     FM120200 18008KT P6SM -SN OVC025
     FM120600 24012G18KT 2SM -SN OVC008=

USA.gov is the U.S. government's official web portal to all federal, state and local government web resources and services.